createdAt,value
2023-02-25T00:00:31.344Z,95700.88
2023-02-25T00:02:58.924Z,95700.56
2023-02-25T00:05:26.313Z,95697.31
2023-02-25T00:07:53.633Z,95709.88
2023-02-25T00:10:20.307Z,95710.47
2023-02-25T00:12:46.864Z,95722.72
2023-02-25T00:15:13.513Z,95727.31
2023-02-25T00:17:40.156Z,95726.97
2023-02-25T00:20:09.776Z,95729.25
2023-02-25T00:22:36.829Z,95738.91
2023-02-25T00:25:03.543Z,95743.50
2023-02-25T00:27:30.261Z,95750.88
2023-02-25T00:29:56.949Z,95751.81
2023-02-25T00:32:23.886Z,95758.88
2023-02-25T00:34:51.999Z,95765.00
2023-02-25T00:37:18.801Z,95762.72
2023-02-25T00:39:45.627Z,95769.06
2023-02-25T00:42:15.953Z,95755.28
2023-02-25T00:44:47.160Z,95747.13
2023-02-25T00:47:15.220Z,95752.34
2023-02-25T00:49:42.043Z,95760.78
2023-02-25T00:52:08.929Z,95759.78
2023-02-25T00:54:35.694Z,95763.28
2023-02-25T00:57:02.526Z,95754.13
2023-02-25T00:59:29.792Z,95763.97
2023-02-25T01:01:56.376Z,95767.06
2023-02-25T01:04:23.134Z,95771.81
2023-02-25T01:06:49.994Z,95766.78
2023-02-25T01:09:16.896Z,95774.78
2023-02-25T01:11:45.820Z,95785.50
2023-02-25T01:14:15.946Z,95784.72
2023-02-25T01:16:42.428Z,95782.31
2023-02-25T01:19:14.087Z,95778.59
2023-02-25T01:21:47.319Z,95788.09
2023-02-25T01:24:17.092Z,95780.00
2023-02-25T01:26:45.564Z,95785.66
2023-02-25T01:29:17.459Z,95800.88
2023-02-25T01:31:44.861Z,95808.97
2023-02-25T01:34:14.972Z,95802.78
2023-02-25T01:36:42.874Z,95806.34
2023-02-25T01:39:10.457Z,95814.22
2023-02-25T01:41:38.360Z,95815.03
2023-02-25T01:44:13.301Z,95800.88
2023-02-25T01:46:42.109Z,95792.31
2023-02-25T01:49:16.720Z,95803.31
2023-02-25T01:51:46.065Z,95805.25
2023-02-25T01:54:14.828Z,95813.56
2023-02-25T01:56:48.442Z,95809.53
2023-02-25T01:59:16.475Z,95815.66
2023-02-25T02:01:43.846Z,95816.41
2023-02-25T02:04:15.124Z,95814.16
2023-02-25T02:06:44.426Z,95804.84
2023-02-25T02:09:15.838Z,95801.34
2023-02-25T02:11:43.715Z,95814.56
2023-02-25T02:14:12.934Z,95811.63
2023-02-25T02:16:54.406Z,95806.44
2023-02-25T02:19:41.875Z,95820.31
2023-02-25T02:22:12.676Z,95816.66
2023-02-25T02:24:55.600Z,95810.72
2023-02-25T02:27:34.173Z,95809.72
2023-02-25T02:30:00.557Z,95808.44
2023-02-25T02:32:39.249Z,95797.16
2023-02-25T02:35:17.836Z,95804.69
2023-02-25T02:37:47.022Z,95803.53
2023-02-25T02:40:25.975Z,95793.47
2023-02-25T02:43:10.817Z,95795.97
2023-02-25T02:45:46.449Z,95806.28
2023-02-25T02:48:15.792Z,95805.53
2023-02-25T02:50:46.918Z,95800.56
2023-02-25T02:53:16.627Z,95806.66
2023-02-25T02:55:53.714Z,95807.53
2023-02-25T02:58:31.835Z,95816.13
2023-02-25T03:01:02.269Z,95806.75
2023-02-25T03:03:38.625Z,95813.53
2023-02-25T03:06:07.911Z,95815.91
2023-02-25T03:08:46.317Z,95815.47
2023-02-25T03:11:13.911Z,95818.13
2023-02-25T03:13:40.920Z,95813.13
2023-02-25T03:16:10.649Z,95809.34
2023-02-25T03:18:39.364Z,95818.31
2023-02-25T03:21:11.913Z,95829.59
2023-02-25T03:23:40.295Z,95824.97
2023-02-25T03:26:12.855Z,95837.03
2023-02-25T03:28:40.250Z,95825.81
2023-02-25T03:31:07.830Z,95843.06
2023-02-25T03:33:47.960Z,95836.34
2023-02-25T03:36:34.582Z,95833.94
2023-02-25T03:39:06.376Z,95836.56
2023-02-25T03:41:36.013Z,95835.53
2023-02-25T03:44:05.033Z,95839.63
2023-02-25T03:46:33.151Z,95841.63
2023-02-25T03:49:01.441Z,95840.53
2023-02-25T03:51:30.963Z,95834.19
2023-02-25T03:53:58.140Z,95836.19
2023-02-25T03:56:25.301Z,95842.97
2023-02-25T03:58:51.897Z,95831.06
2023-02-25T04:01:22.891Z,95849.31
2023-02-25T04:03:49.390Z,95843.34
2023-02-25T04:06:16.315Z,95836.53
2023-02-25T04:08:42.772Z,95841.44
2023-02-25T04:11:09.210Z,95857.91
2023-02-25T04:13:35.643Z,95850.13
2023-02-25T04:16:02.110Z,95855.31
2023-02-25T04:18:28.952Z,95853.41
2023-02-25T04:20:55.426Z,95851.75
2023-02-25T04:23:22.244Z,95855.03
2023-02-25T04:25:48.852Z,95844.56
2023-02-25T04:28:15.587Z,95850.91
2023-02-25T04:30:42.233Z,95850.81
2023-02-25T04:33:09.790Z,95849.31
2023-02-25T04:35:36.202Z,95843.97
2023-02-25T04:38:02.889Z,95843.06
2023-02-25T04:40:29.430Z,95859.53
2023-02-25T04:42:55.814Z,95861.13
2023-02-25T04:45:26.919Z,95854.94
2023-02-25T04:47:54.262Z,95862.56
2023-02-25T04:50:20.783Z,95852.72
2023-02-25T04:52:47.230Z,95860.59
2023-02-25T04:55:13.659Z,95860.41
2023-02-25T04:57:42.773Z,95855.72
2023-02-25T05:00:12.191Z,95859.25
2023-02-25T05:02:38.588Z,95855.34
2023-02-25T05:05:05.260Z,95865.84
2023-02-25T05:07:32.074Z,95862.34
2023-02-25T05:09:58.476Z,95858.94
2023-02-25T05:12:24.947Z,95865.19
2023-02-25T05:14:53.898Z,95862.53
2023-02-25T05:17:20.350Z,95877.16
2023-02-25T05:19:46.762Z,95862.53
2023-02-25T05:22:13.586Z,95874.50
2023-02-25T05:24:40.026Z,95876.09
2023-02-25T05:27:06.666Z,95871.59
2023-02-25T05:29:33.091Z,95886.28
2023-02-25T05:31:59.660Z,95899.19
2023-02-25T05:34:26.516Z,95882.97
2023-02-25T05:36:52.967Z,95895.25
2023-02-25T05:39:19.347Z,95892.88
2023-02-25T05:41:45.766Z,95894.56
2023-02-25T05:44:12.172Z,95902.13
2023-02-25T05:46:39.764Z,95912.50
2023-02-25T05:49:06.296Z,95912.56
2023-02-25T05:51:33.212Z,95916.09
2023-02-25T05:54:00.379Z,95918.75
2023-02-25T05:56:31.722Z,95918.75
2023-02-25T05:59:00.792Z,95918.75
2023-02-25T06:01:31.683Z,95923.88
2023-02-25T06:03:59.178Z,95920.28
2023-02-25T06:06:27.030Z,95924.63
2023-02-25T06:08:53.737Z,95928.06
2023-02-25T06:11:21.603Z,95921.72
2023-02-25T06:13:49.238Z,95926.31
2023-02-25T06:16:16.179Z,95932.31
2023-02-25T06:18:43.021Z,95928.81
2023-02-25T06:21:10.402Z,95939.88
2023-02-25T06:23:38.759Z,95938.03
2023-02-25T06:26:08.080Z,95937.03
2023-02-25T06:28:36.212Z,95931.84
2023-02-25T06:31:05.145Z,95942.22
2023-02-25T06:33:32.210Z,95952.38
2023-02-25T06:35:59.071Z,95952.13
2023-02-25T06:38:26.621Z,95958.69
2023-02-25T06:40:53.201Z,95956.28
2023-02-25T06:43:19.759Z,95960.72
2023-02-25T06:45:46.348Z,95967.50
2023-02-25T06:48:12.898Z,95970.88
2023-02-25T06:50:40.157Z,95966.41
2023-02-25T06:53:07.473Z,95971.09
2023-02-25T06:55:34.061Z,95974.94
2023-02-25T06:58:00.578Z,95977.59
2023-02-25T07:00:27.128Z,95977.97
2023-02-25T07:02:53.540Z,95978.06
2023-02-25T07:05:19.932Z,95976.81
2023-02-25T07:07:46.406Z,95984.19
2023-02-25T07:10:12.845Z,95988.56
2023-02-25T07:12:39.243Z,95980.00
2023-02-25T07:15:05.899Z,95986.56
2023-02-25T07:17:32.313Z,95986.97
2023-02-25T07:19:58.704Z,95980.44
2023-02-25T07:22:25.604Z,95981.47
2023-02-25T07:24:52.234Z,95984.06
2023-02-25T07:27:18.697Z,95984.06
2023-02-25T07:29:45.091Z,95980.94
2023-02-25T07:32:12.090Z,95984.03
2023-02-25T07:34:39.270Z,95980.25
2023-02-25T07:37:05.709Z,95985.13
2023-02-25T07:39:32.138Z,95981.84
2023-02-25T07:41:58.502Z,95977.94
2023-02-25T07:44:24.899Z,95984.38
2023-02-25T07:46:51.252Z,95987.53
2023-02-25T07:49:17.649Z,95987.91
2023-02-25T07:51:44.196Z,95981.34
2023-02-25T07:54:10.625Z,95996.09
2023-02-25T07:56:37.212Z,95986.75
2023-02-25T07:59:04.177Z,95989.53
2023-02-25T08:01:31.798Z,95983.88
2023-02-25T08:03:59.754Z,95981.72
2023-02-25T08:06:26.760Z,95985.53
2023-02-25T08:08:55.217Z,95983.47
2023-02-25T08:11:22.889Z,95981.78
2023-02-25T08:13:50.399Z,95985.63
2023-02-25T08:16:19.966Z,95972.06
2023-02-25T08:18:48.376Z,95982.03
2023-02-25T08:21:18.471Z,95982.00
2023-02-25T08:23:44.958Z,95991.59
2023-02-25T08:26:12.000Z,95990.38
2023-02-25T08:28:39.686Z,95983.69
2023-02-25T08:31:08.533Z,95992.66
2023-02-25T08:33:35.362Z,95990.94
2023-02-25T08:36:13.925Z,95990.00
2023-02-25T08:38:40.310Z,95990.63
2023-02-25T08:41:07.619Z,95982.34
2023-02-25T08:43:34.216Z,95986.09
2023-02-25T08:46:01.397Z,95986.75
2023-02-25T08:48:28.044Z,95983.59
2023-02-25T08:50:55.627Z,95988.34
2023-02-25T08:53:22.439Z,95987.03
2023-02-25T08:55:48.822Z,95982.38
2023-02-25T08:58:15.183Z,95983.50
2023-02-25T09:00:44.097Z,95977.59
2023-02-25T09:03:10.542Z,95989.41
2023-02-25T09:05:38.134Z,95980.53
2023-02-25T09:08:05.198Z,95985.59
2023-02-25T09:10:48.269Z,95981.94
2023-02-25T09:13:17.201Z,95993.56
2023-02-25T09:15:44.042Z,95992.50
2023-02-25T09:18:13.739Z,96000.69
2023-02-25T09:20:40.459Z,96008.13
2023-02-25T09:23:07.071Z,96003.81
2023-02-25T09:25:33.579Z,96004.88
2023-02-25T09:28:01.055Z,95999.88
2023-02-25T09:30:27.503Z,95993.44
2023-02-25T09:32:54.006Z,95997.81
2023-02-25T09:35:20.549Z,95997.16
2023-02-25T09:37:47.287Z,96004.88
2023-02-25T09:40:17.206Z,96001.91
2023-02-25T09:42:52.472Z,95995.69
2023-02-25T09:45:23.073Z,95990.00
2023-02-25T09:47:55.110Z,95984.50
2023-02-25T09:50:33.000Z,95985.19
2023-02-25T09:53:05.193Z,95987.97
2023-02-25T09:55:36.258Z,95984.84
2023-02-25T09:58:06.944Z,95987.75
2023-02-25T10:00:37.372Z,95979.47
2023-02-25T10:03:18.697Z,95972.72
2023-02-25T10:05:48.672Z,95976.00
2023-02-25T10:08:33.789Z,95983.91
2023-02-25T10:11:03.998Z,95980.69
2023-02-25T10:13:34.573Z,95975.47
2023-02-25T10:16:06.860Z,95977.97
2023-02-25T10:18:44.417Z,95973.00
2023-02-25T10:21:26.536Z,95979.06
2023-02-25T10:24:13.180Z,95961.59
2023-02-25T10:26:45.081Z,95961.63
2023-02-25T10:29:35.032Z,95953.00
2023-02-25T10:32:16.616Z,95949.19
2023-02-25T10:34:43.816Z,95946.72
2023-02-25T10:37:21.616Z,95944.41
2023-02-25T10:39:50.729Z,95947.22
2023-02-25T10:42:18.954Z,95951.00
2023-02-25T10:44:46.705Z,95943.63
2023-02-25T10:47:18.315Z,95950.88
2023-02-25T10:50:44.895Z,95940.78
2023-02-25T10:53:18.893Z,95941.56
2023-02-25T10:55:52.133Z,95937.03
2023-02-25T10:58:31.688Z,95935.69
2023-02-25T11:01:09.751Z,95925.91
2023-02-25T11:04:01.462Z,95929.75
2023-02-25T11:06:38.054Z,95928.97
2023-02-25T11:09:26.876Z,95915.25
2023-02-25T11:11:56.664Z,95914.94
2023-02-25T11:14:28.287Z,95901.69
2023-02-25T11:17:07.297Z,95894.25
2023-02-25T11:19:40.924Z,95894.13
2023-02-25T11:22:11.412Z,95899.47
2023-02-25T11:24:39.702Z,95894.94
2023-02-25T11:27:08.521Z,95889.22
2023-02-25T11:29:43.614Z,95874.94
2023-02-25T11:32:15.567Z,95872.50
2023-02-25T11:34:55.607Z,95878.00
2023-02-25T11:37:25.130Z,95873.31
2023-02-25T11:39:52.776Z,95859.19
2023-02-25T11:42:25.118Z,95850.50
2023-02-25T11:45:03.668Z,95845.53
2023-02-25T11:47:37.454Z,95843.28
2023-02-25T11:50:24.231Z,95841.00
2023-02-25T11:53:14.188Z,95841.38
2023-02-25T11:55:58.971Z,95845.06
2023-02-25T11:58:56.492Z,95843.75
2023-02-25T12:02:05.261Z,95824.47
2023-02-25T12:04:50.019Z,95831.84
2023-02-25T12:07:31.725Z,95834.56
2023-02-25T12:10:27.204Z,95840.63
2023-02-25T12:12:57.054Z,95836.13
2023-02-25T12:15:29.252Z,95840.97
2023-02-25T12:18:26.338Z,95829.41
2023-02-25T12:21:09.902Z,95825.13
2023-02-25T12:24:28.996Z,95822.34
2023-02-25T12:27:34.153Z,95818.00
2023-02-25T12:30:08.626Z,95813.13
2023-02-25T12:33:04.266Z,95817.88
2023-02-25T12:36:03.868Z,95809.53
2023-02-25T12:38:52.133Z,95807.25
2023-02-25T12:41:55.176Z,95817.94
2023-02-25T12:44:24.791Z,95819.72
2023-02-25T12:47:06.232Z,95831.03
2023-02-25T12:49:47.986Z,95840.38
2023-02-25T12:52:48.306Z,95850.09
2023-02-25T12:55:26.933Z,95854.75
2023-02-25T12:58:18.325Z,95860.22
2023-02-25T13:01:33.353Z,95857.91
2023-02-25T13:04:18.308Z,95855.59
2023-02-25T13:07:18.301Z,95850.09
2023-02-25T13:09:59.559Z,95841.41
2023-02-25T13:13:02.526Z,95843.91
2023-02-25T13:15:52.896Z,95839.19
2023-02-25T13:18:56.996Z,95848.38
2023-02-25T13:21:46.981Z,95856.75
2023-02-25T13:24:13.410Z,95858.28
2023-02-25T13:27:10.757Z,95854.13
2023-02-25T13:30:06.470Z,95844.13
2023-02-25T13:32:45.099Z,95852.66
2023-02-25T13:35:25.758Z,95856.09
2023-02-25T13:38:30.132Z,95864.16
2023-02-25T13:41:26.445Z,95858.63
2023-02-25T13:44:14.745Z,95866.44
2023-02-25T13:47:10.828Z,95853.84
2023-02-25T13:49:55.871Z,95874.09
2023-02-25T13:53:01.331Z,95874.56
2023-02-25T13:55:46.343Z,95871.00
2023-02-25T13:58:35.293Z,95872.66
2023-02-25T14:01:22.747Z,95873.75
2023-02-25T14:04:17.132Z,95856.03
2023-02-25T14:07:12.122Z,95857.59
2023-02-25T14:09:56.690Z,95854.53
2023-02-25T14:13:04.731Z,95845.91
2023-02-25T14:15:34.097Z,95846.47
2023-02-25T14:18:44.889Z,95859.00
2023-02-25T14:21:35.455Z,95864.22
2023-02-25T14:24:04.995Z,95861.97
2023-02-25T14:26:43.187Z,95874.66
2023-02-25T14:29:22.492Z,95876.69
2023-02-25T14:32:01.046Z,95865.69
2023-02-25T14:35:05.092Z,95862.84
2023-02-25T15:03:53.499Z,95896.97
2023-02-25T15:06:42.033Z,95903.41
2023-02-25T15:09:30.300Z,95899.94
2023-02-25T15:12:05.921Z,95898.38
2023-02-25T15:14:42.323Z,95891.56
2023-02-25T15:17:25.202Z,95891.69
2023-02-25T15:20:10.970Z,95895.25
2023-02-25T15:22:38.384Z,95894.47
2023-02-25T15:25:25.950Z,95905.28
2023-02-25T15:27:56.742Z,95912.78
2023-02-25T15:30:25.847Z,95918.31
2023-02-25T15:33:13.740Z,95914.94
2023-02-25T15:35:40.236Z,95908.56
2023-02-25T15:38:13.581Z,95908.09
2023-02-25T15:40:48.924Z,95904.88
2023-02-25T15:43:16.281Z,95908.47
2023-02-25T15:45:44.472Z,95908.38
2023-02-25T15:48:11.019Z,95914.00
2023-02-25T15:50:43.716Z,95912.19
2023-02-25T15:53:31.887Z,95924.56
2023-02-25T15:56:04.397Z,95911.00
2023-02-25T15:58:30.905Z,95916.03
2023-02-25T16:00:58.402Z,95916.69
2023-02-25T16:03:38.336Z,95912.41
2023-02-25T16:06:07.058Z,95914.19
2023-02-25T16:08:49.453Z,95925.53
2023-02-25T16:11:38.175Z,95937.16
2023-02-25T16:14:13.892Z,95940.69
2023-02-25T16:16:49.335Z,95935.28
2023-02-25T16:19:22.790Z,95937.84
2023-02-25T16:22:13.990Z,95949.09
2023-02-25T16:24:45.561Z,95955.78
2023-02-25T16:27:17.750Z,95957.72
2023-02-25T16:30:09.684Z,95953.63
2023-02-25T16:33:05.460Z,95953.06
2023-02-25T16:36:08.062Z,95960.03
2023-02-25T16:38:55.809Z,95958.09
2023-02-25T16:41:30.342Z,95964.31
2023-02-25T16:44:03.484Z,95961.00
2023-02-25T16:46:35.601Z,95965.56
2023-02-25T16:49:07.916Z,95972.72
2023-02-25T16:51:36.130Z,95971.13
2023-02-25T16:54:08.836Z,95981.63
2023-02-25T16:56:36.614Z,95984.56
2023-02-25T16:59:09.334Z,95987.41
2023-02-25T17:01:38.223Z,95994.56
2023-02-25T17:04:27.768Z,95991.88
2023-02-25T17:07:19.945Z,95999.78
2023-02-25T17:09:49.120Z,95996.69
2023-02-25T17:12:19.708Z,96000.63
2023-02-25T17:14:50.113Z,95999.72
2023-02-25T17:17:21.018Z,96002.41
2023-02-25T17:19:47.922Z,96005.59
2023-02-25T17:22:20.010Z,96004.00
2023-02-25T17:24:47.012Z,96005.00
2023-02-25T17:27:14.825Z,96012.34
2023-02-25T17:29:41.421Z,96023.03
2023-02-25T17:32:28.468Z,96042.53
2023-02-25T17:35:00.171Z,96061.94
2023-02-25T17:37:29.769Z,96068.72
2023-02-25T17:39:57.114Z,96081.91
2023-02-25T17:42:32.661Z,96075.19
2023-02-25T17:45:01.085Z,96085.00
2023-02-25T17:47:33.698Z,96082.56
2023-02-25T17:50:21.662Z,96078.63
2023-02-25T17:52:49.051Z,96091.72
2023-02-25T17:55:26.073Z,96094.41
2023-02-25T17:57:57.361Z,96105.91
2023-02-25T18:00:36.242Z,96116.38
2023-02-25T18:03:21.175Z,96108.66
2023-02-25T18:05:59.194Z,96112.25
2023-02-25T18:08:28.465Z,96122.00
2023-02-25T18:11:37.938Z,96133.63
2023-02-25T18:14:31.358Z,96133.28
2023-02-25T18:16:58.345Z,96131.22
2023-02-25T18:19:24.829Z,96135.00
2023-02-25T18:21:52.598Z,96131.78
2023-02-25T18:24:37.721Z,96140.81
2023-02-25T18:27:05.848Z,96137.47
2023-02-25T18:29:33.234Z,96130.66
2023-02-25T18:31:59.976Z,96134.25
2023-02-25T18:34:26.578Z,96137.09
2023-02-25T18:36:53.057Z,96128.63
2023-02-25T18:39:21.250Z,96136.66
2023-02-25T18:41:47.730Z,96128.16
2023-02-25T18:44:14.983Z,96129.25
2023-02-25T18:46:41.796Z,96131.84
2023-02-25T18:49:08.396Z,96125.13
2023-02-25T18:51:35.697Z,96130.84
2023-02-25T18:54:02.436Z,96135.56
2023-02-25T18:56:28.940Z,96141.00
2023-02-25T18:58:57.418Z,96136.84
2023-02-25T19:01:27.394Z,96135.50
2023-02-25T19:03:59.248Z,96130.50
2023-02-25T19:06:28.242Z,96129.75
2023-02-25T19:08:54.924Z,96133.09
2023-02-25T19:11:25.255Z,96135.69
2023-02-25T19:13:52.152Z,96126.78
2023-02-25T19:16:19.328Z,96135.09
2023-02-25T19:18:47.318Z,96138.81
2023-02-25T19:21:16.450Z,96136.31
2023-02-25T19:23:43.326Z,96138.16
2023-02-25T19:26:10.643Z,96145.78
2023-02-25T19:28:37.219Z,96148.22
2023-02-25T19:31:08.101Z,96157.53
2023-02-25T19:33:35.438Z,96146.31
2023-02-25T19:36:03.054Z,96148.81
2023-02-25T19:38:29.702Z,96159.91
2023-02-25T19:41:04.990Z,96155.47
2023-02-25T19:43:32.246Z,96154.63
2023-02-25T19:45:58.903Z,96159.00
2023-02-25T19:48:25.487Z,96154.00
2023-02-25T19:50:51.989Z,96162.09
2023-02-25T19:53:19.179Z,96163.03
2023-02-25T19:55:45.740Z,96164.22
2023-02-25T19:58:12.319Z,96159.72
2023-02-25T20:00:39.944Z,96165.81
2023-02-25T20:03:07.620Z,96166.69
2023-02-25T20:05:34.910Z,96164.91
2023-02-25T20:08:02.292Z,96171.88
2023-02-25T20:10:28.846Z,96172.69
2023-02-25T20:12:55.364Z,96172.69
2023-02-25T20:15:21.937Z,96168.41
2023-02-25T20:17:49.295Z,96166.72
2023-02-25T20:20:16.921Z,96167.66
2023-02-25T20:22:43.691Z,96169.47
2023-02-25T20:25:13.268Z,96175.44
2023-02-25T20:27:43.290Z,96172.00
2023-02-25T20:30:15.628Z,96175.66
2023-02-25T20:32:46.153Z,96170.63
2023-02-25T20:35:21.400Z,96175.72
2023-02-25T20:38:14.231Z,96175.81
2023-02-25T20:40:40.893Z,96170.75
2023-02-25T20:43:09.500Z,96173.41
2023-02-25T20:45:36.397Z,96172.66
2023-02-25T20:48:03.014Z,96171.88
2023-02-25T20:50:29.765Z,96179.81
2023-02-25T20:52:56.556Z,96179.09
2023-02-25T20:55:23.538Z,96184.38
2023-02-25T20:57:50.058Z,96188.75
2023-02-25T21:00:17.090Z,96187.16
2023-02-25T21:02:43.593Z,96182.03
2023-02-25T21:05:10.119Z,96175.25
2023-02-25T21:07:36.571Z,96179.59
2023-02-25T21:10:03.319Z,96177.09
2023-02-25T21:12:29.966Z,96181.56
2023-02-25T21:14:56.499Z,96185.97
2023-02-25T21:17:23.082Z,96186.03
2023-02-25T21:19:49.592Z,96187.88
2023-02-25T21:22:16.118Z,96174.97
2023-02-25T21:24:42.733Z,96181.81
2023-02-25T21:27:09.264Z,96181.75
2023-02-25T21:29:35.863Z,96190.38
2023-02-25T21:32:02.381Z,96188.69
2023-02-25T21:34:29.172Z,96192.91
2023-02-25T21:36:58.385Z,96193.66
2023-02-25T21:39:25.991Z,96192.69
2023-02-25T21:41:52.781Z,96189.13
2023-02-25T21:44:19.344Z,96196.00
2023-02-25T21:46:45.865Z,96192.50
2023-02-25T21:49:12.539Z,96192.41
2023-02-25T21:51:40.238Z,96198.50
2023-02-25T21:54:07.027Z,96191.59
2023-02-25T21:56:33.669Z,96201.09
2023-02-25T21:59:03.362Z,96191.59
2023-02-25T22:01:32.702Z,96187.16
2023-02-25T22:03:59.292Z,96188.75
2023-02-25T22:06:26.941Z,96193.88
2023-02-25T22:08:54.796Z,96190.38
2023-02-25T22:11:27.480Z,96181.78
2023-02-25T22:13:54.707Z,96177.56
2023-02-25T22:16:23.193Z,96181.88
2023-02-25T22:18:51.150Z,96177.56
2023-02-25T22:21:23.908Z,96176.66
2023-02-25T22:23:52.319Z,96177.41
2023-02-25T22:26:23.331Z,96180.88
2023-02-25T22:28:54.777Z,96180.88
2023-02-25T22:31:21.543Z,96173.91
2023-02-25T22:33:48.144Z,96179.09
2023-02-25T22:36:17.113Z,96170.53
2023-02-25T22:38:45.080Z,96177.34
2023-02-25T22:41:14.760Z,96176.59
2023-02-25T22:43:41.623Z,96171.47
2023-02-25T22:46:14.791Z,96178.31
2023-02-25T22:48:43.213Z,96185.13
2023-02-25T22:51:11.165Z,96184.06
2023-02-25T22:53:39.452Z,96180.56
2023-02-25T22:56:10.416Z,96187.59
2023-02-25T22:58:40.406Z,96186.81
2023-02-25T23:01:13.671Z,96197.25
2023-02-25T23:03:43.720Z,96185.19
2023-02-25T23:06:10.455Z,96198.31
2023-02-25T23:08:37.337Z,96190.69
2023-02-25T23:11:11.648Z,96201.06
2023-02-25T23:13:45.976Z,96197.69
2023-02-25T23:16:14.744Z,96196.97
2023-02-25T23:18:42.198Z,96203.91
2023-02-25T23:21:12.202Z,96204.19
2023-02-25T23:23:39.558Z,96206.78
2023-02-25T23:26:08.316Z,96210.22
2023-02-25T23:28:35.811Z,96211.88
2023-02-25T23:31:03.353Z,96222.19
2023-02-25T23:33:31.077Z,96217.94
2023-02-25T23:35:58.322Z,96212.66
2023-02-25T23:38:25.430Z,96219.47
2023-02-25T23:40:51.932Z,96218.75
2023-02-25T23:43:18.452Z,96217.00
2023-02-25T23:45:47.022Z,96221.41
2023-02-25T23:48:14.086Z,96225.78
2023-02-25T23:50:40.658Z,96221.56
2023-02-25T23:53:07.225Z,96220.78
2023-02-25T23:55:35.544Z,96219.09
2023-02-25T23:58:02.583Z,96225.19
